sensor_id;sensor_type;location;lat;lon;timestamp;P1;durP1;ratioP1;P2;durP2;ratioP2
71867;SDS011;59738;48.324;14.230;2023-07-13T00:00:27;8.63;;;5.43;;
71867;SDS011;59738;48.324;14.230;2023-07-13T00:02:54;7.83;;;4.67;;
71867;SDS011;59738;48.324;14.230;2023-07-13T00:05:22;9.70;;;4.32;;
71867;SDS011;59738;48.324;14.230;2023-07-13T00:07:50;6.90;;;4.50;;
71867;SDS011;59738;48.324;14.230;2023-07-13T00:10:18;9.45;;;4.93;;
71867;SDS011;59738;48.324;14.230;2023-07-13T00:12:45;7.60;;;4.55;;
71867;SDS011;59738;48.324;14.230;2023-07-13T00:15:14;7.10;;;4.67;;
71867;SDS011;59738;48.324;14.230;2023-07-13T00:17:46;9.75;;;5.03;;
71867;SDS011;59738;48.324;14.230;2023-07-13T00:20:14;10.80;;;5.20;;
71867;SDS011;59738;48.324;14.230;2023-07-13T00:22:41;7.70;;;5.13;;
71867;SDS011;59738;48.324;14.230;2023-07-13T00:25:09;8.82;;;5.13;;
71867;SDS011;59738;48.324;14.230;2023-07-13T00:27:37;8.57;;;5.47;;
71867;SDS011;59738;48.324;14.230;2023-07-13T00:30:05;10.93;;;4.70;;
71867;SDS011;59738;48.324;14.230;2023-07-13T00:32:36;10.65;;;5.15;;
71867;SDS011;59738;48.324;14.230;2023-07-13T00:35:06;9.48;;;5.10;;
71867;SDS011;59738;48.324;14.230;2023-07-13T00:37:34;9.60;;;4.93;;
71867;SDS011;59738;48.324;14.230;2023-07-13T00:40:02;10.73;;;4.03;;
71867;SDS011;59738;48.324;14.230;2023-07-13T00:42:30;10.07;;;4.60;;
71867;SDS011;59738;48.324;14.230;2023-07-13T00:45:01;6.78;;;4.40;;
71867;SDS011;59738;48.324;14.230;2023-07-13T00:47:30;9.90;;;4.63;;
71867;SDS011;59738;48.324;14.230;2023-07-13T00:49:59;8.48;;;4.13;;
71867;SDS011;59738;48.324;14.230;2023-07-13T00:52:26;9.30;;;4.47;;
71867;SDS011;59738;48.324;14.230;2023-07-13T00:54:55;12.55;;;4.90;;
71867;SDS011;59738;48.324;14.230;2023-07-13T00:57:22;10.30;;;4.80;;
71867;SDS011;59738;48.324;14.230;2023-07-13T00:59:51;12.38;;;5.72;;
71867;SDS011;59738;48.324;14.230;2023-07-13T01:02:20;9.77;;;6.15;;
71867;SDS011;59738;48.324;14.230;2023-07-13T01:04:48;12.93;;;6.47;;
71867;SDS011;59738;48.324;14.230;2023-07-13T01:07:17;14.25;;;6.10;;
71867;SDS011;59738;48.324;14.230;2023-07-13T01:09:45;13.95;;;5.80;;
71867;SDS011;59738;48.324;14.230;2023-07-13T01:12:13;11.82;;;5.75;;
71867;SDS011;59738;48.324;14.230;2023-07-13T01:14:40;9.43;;;5.75;;
71867;SDS011;59738;48.324;14.230;2023-07-13T01:17:08;6.30;;;4.50;;
71867;SDS011;59738;48.324;14.230;2023-07-13T01:19:37;12.25;;;4.85;;
71867;SDS011;59738;48.324;14.230;2023-07-13T01:22:09;10.88;;;5.13;;
71867;SDS011;59738;48.324;14.230;2023-07-13T01:24:38;12.15;;;5.05;;
71867;SDS011;59738;48.324;14.230;2023-07-13T01:27:08;13.25;;;5.72;;
71867;SDS011;59738;48.324;14.230;2023-07-13T01:29:40;12.47;;;5.50;;
71867;SDS011;59738;48.324;14.230;2023-07-13T01:32:09;17.27;;;6.35;;
71867;SDS011;59738;48.324;14.230;2023-07-13T01:34:37;9.25;;;5.82;;
71867;SDS011;59738;48.324;14.230;2023-07-13T01:37:09;11.75;;;6.10;;
71867;SDS011;59738;48.324;14.230;2023-07-13T01:39:37;14.25;;;7.30;;
71867;SDS011;59738;48.324;14.230;2023-07-13T01:42:05;9.67;;;6.40;;
71867;SDS011;59738;48.324;14.230;2023-07-13T01:44:32;16.92;;;6.38;;
71867;SDS011;59738;48.324;14.230;2023-07-13T01:47:00;16.90;;;6.18;;
71867;SDS011;59738;48.324;14.230;2023-07-13T01:49:27;16.85;;;7.20;;
71867;SDS011;59738;48.324;14.230;2023-07-13T01:51:54;10.95;;;7.07;;
71867;SDS011;59738;48.324;14.230;2023-07-13T01:54:23;11.63;;;5.97;;
71867;SDS011;59738;48.324;14.230;2023-07-13T01:56:51;12.32;;;6.20;;
71867;SDS011;59738;48.324;14.230;2023-07-13T01:59:18;12.90;;;6.78;;
71867;SDS011;59738;48.324;14.230;2023-07-13T02:01:45;11.88;;;6.43;;
71867;SDS011;59738;48.324;14.230;2023-07-13T02:04:14;14.32;;;6.22;;
71867;SDS011;59738;48.324;14.230;2023-07-13T02:06:41;12.47;;;6.73;;
71867;SDS011;59738;48.324;14.230;2023-07-13T02:09:08;14.57;;;6.85;;
71867;SDS011;59738;48.324;14.230;2023-07-13T02:11:37;17.38;;;7.35;;
71867;SDS011;59738;48.324;14.230;2023-07-13T02:14:04;11.52;;;7.20;;
71867;SDS011;59738;48.324;14.230;2023-07-13T02:16:32;15.13;;;8.27;;
71867;SDS011;59738;48.324;14.230;2023-07-13T02:18:59;14.77;;;7.70;;
71867;SDS011;59738;48.324;14.230;2023-07-13T02:21:27;11.88;;;7.40;;
71867;SDS011;59738;48.324;14.230;2023-07-13T02:23:54;13.77;;;7.90;;
71867;SDS011;59738;48.324;14.230;2023-07-13T02:26:23;16.13;;;7.50;;
71867;SDS011;59738;48.324;14.230;2023-07-13T02:28:52;14.48;;;7.22;;
71867;SDS011;59738;48.324;14.230;2023-07-13T02:31:19;14.83;;;8.03;;
71867;SDS011;59738;48.324;14.230;2023-07-13T02:33:47;15.07;;;7.47;;
71867;SDS011;59738;48.324;14.230;2023-07-13T02:36:14;14.52;;;7.28;;
71867;SDS011;59738;48.324;14.230;2023-07-13T02:38:44;11.45;;;7.38;;
71867;SDS011;59738;48.324;14.230;2023-07-13T02:41:11;13.02;;;7.88;;
71867;SDS011;59738;48.324;14.230;2023-07-13T02:43:39;16.97;;;8.73;;
71867;SDS011;59738;48.324;14.230;2023-07-13T02:46:10;12.07;;;6.82;;
71867;SDS011;59738;48.324;14.230;2023-07-13T02:48:38;10.45;;;6.60;;
71867;SDS011;59738;48.324;14.230;2023-07-13T02:51:06;14.88;;;7.53;;
71867;SDS011;59738;48.324;14.230;2023-07-13T02:53:34;11.73;;;7.90;;
71867;SDS011;59738;48.324;14.230;2023-07-13T02:56:02;12.47;;;7.43;;
71867;SDS011;59738;48.324;14.230;2023-07-13T02:58:30;12.15;;;6.80;;
71867;SDS011;59738;48.324;14.230;2023-07-13T03:00:57;11.05;;;6.65;;
71867;SDS011;59738;48.324;14.230;2023-07-13T03:03:27;10.13;;;6.55;;
71867;SDS011;59738;48.324;14.230;2023-07-13T03:05:57;14.98;;;7.97;;
71867;SDS011;59738;48.324;14.230;2023-07-13T03:08:28;14.47;;;7.10;;
71867;SDS011;59738;48.324;14.230;2023-07-13T03:10:59;13.90;;;7.15;;
71867;SDS011;59738;48.324;14.230;2023-07-13T03:13:29;15.48;;;7.68;;
71867;SDS011;59738;48.324;14.230;2023-07-13T03:15:56;12.27;;;7.63;;
71867;SDS011;59738;48.324;14.230;2023-07-13T03:18:25;14.48;;;8.05;;
71867;SDS011;59738;48.324;14.230;2023-07-13T03:20:55;12.77;;;7.33;;
71867;SDS011;59738;48.324;14.230;2023-07-13T03:23:22;15.95;;;7.85;;
71867;SDS011;59738;48.324;14.230;2023-07-13T03:26:00;14.98;;;7.90;;
71867;SDS011;59738;48.324;14.230;2023-07-13T03:28:28;12.80;;;7.88;;
71867;SDS011;59738;48.324;14.230;2023-07-13T03:31:00;12.35;;;7.63;;
71867;SDS011;59738;48.324;14.230;2023-07-13T03:33:31;14.87;;;8.23;;
71867;SDS011;59738;48.324;14.230;2023-07-13T03:35:59;12.25;;;7.45;;
71867;SDS011;59738;48.324;14.230;2023-07-13T03:38:26;13.15;;;8.20;;
71867;SDS011;59738;48.324;14.230;2023-07-13T03:40:54;10.95;;;7.35;;
71867;SDS011;59738;48.324;14.230;2023-07-13T03:43:22;13.93;;;7.15;;
71867;SDS011;59738;48.324;14.230;2023-07-13T03:45:49;14.23;;;6.73;;
71867;SDS011;59738;48.324;14.230;2023-07-13T03:48:17;13.00;;;7.20;;
71867;SDS011;59738;48.324;14.230;2023-07-13T03:50:46;15.88;;;7.45;;
71867;SDS011;59738;48.324;14.230;2023-07-13T03:53:14;12.27;;;6.95;;
71867;SDS011;59738;48.324;14.230;2023-07-13T03:55:41;15.82;;;7.45;;
71867;SDS011;59738;48.324;14.230;2023-07-13T03:58:27;18.13;;;7.90;;
71867;SDS011;59738;48.324;14.230;2023-07-13T04:01:01;14.05;;;7.10;;
71867;SDS011;59738;48.324;14.230;2023-07-13T04:03:29;15.52;;;6.93;;
71867;SDS011;59738;48.324;14.230;2023-07-13T04:06:00;13.10;;;6.38;;
71867;SDS011;59738;48.324;14.230;2023-07-13T04:08:28;12.57;;;6.53;;
71867;SDS011;59738;48.324;14.230;2023-07-13T04:10:57;15.90;;;7.17;;
71867;SDS011;59738;48.324;14.230;2023-07-13T04:13:25;12.68;;;7.38;;
71867;SDS011;59738;48.324;14.230;2023-07-13T04:15:52;9.25;;;6.03;;
71867;SDS011;59738;48.324;14.230;2023-07-13T04:18:21;12.40;;;6.78;;
71867;SDS011;59738;48.324;14.230;2023-07-13T04:20:48;13.18;;;7.05;;
71867;SDS011;59738;48.324;14.230;2023-07-13T04:23:18;11.77;;;6.43;;
71867;SDS011;59738;48.324;14.230;2023-07-13T04:25:46;11.30;;;6.50;;
71867;SDS011;59738;48.324;14.230;2023-07-13T04:28:15;19.30;;;7.30;;
71867;SDS011;59738;48.324;14.230;2023-07-13T04:30:43;12.77;;;6.80;;
71867;SDS011;59738;48.324;14.230;2023-07-13T04:33:10;11.30;;;6.60;;
71867;SDS011;59738;48.324;14.230;2023-07-13T04:35:38;13.20;;;6.17;;
71867;SDS011;59738;48.324;14.230;2023-07-13T04:38:06;12.82;;;6.10;;
71867;SDS011;59738;48.324;14.230;2023-07-13T04:40:34;13.38;;;6.50;;
71867;SDS011;59738;48.324;14.230;2023-07-13T04:43:02;14.10;;;6.97;;
71867;SDS011;59738;48.324;14.230;2023-07-13T04:45:29;13.05;;;7.57;;
71867;SDS011;59738;48.324;14.230;2023-07-13T04:47:57;14.87;;;6.90;;
71867;SDS011;59738;48.324;14.230;2023-07-13T04:50:25;15.68;;;6.70;;
71867;SDS011;59738;48.324;14.230;2023-07-13T04:52:52;11.63;;;6.32;;
71867;SDS011;59738;48.324;14.230;2023-07-13T04:55:20;14.80;;;6.70;;
71867;SDS011;59738;48.324;14.230;2023-07-13T04:57:49;10.75;;;6.88;;
71867;SDS011;59738;48.324;14.230;2023-07-13T05:00:17;10.17;;;6.40;;
71867;SDS011;59738;48.324;14.230;2023-07-13T05:02:45;15.73;;;7.40;;
71867;SDS011;59738;48.324;14.230;2023-07-13T05:05:13;10.10;;;6.15;;
71867;SDS011;59738;48.324;14.230;2023-07-13T05:07:40;14.82;;;6.43;;
71867;SDS011;59738;48.324;14.230;2023-07-13T05:10:08;12.50;;;6.28;;
71867;SDS011;59738;48.324;14.230;2023-07-13T05:12:36;16.10;;;6.60;;
71867;SDS011;59738;48.324;14.230;2023-07-13T05:15:05;12.45;;;6.15;;
71867;SDS011;59738;48.324;14.230;2023-07-13T05:17:33;11.13;;;6.07;;
71867;SDS011;59738;48.324;14.230;2023-07-13T05:20:01;11.45;;;6.55;;
71867;SDS011;59738;48.324;14.230;2023-07-13T05:22:29;11.30;;;7.22;;
71867;SDS011;59738;48.324;14.230;2023-07-13T05:24:56;11.27;;;6.23;;
71867;SDS011;59738;48.324;14.230;2023-07-13T05:27:24;13.63;;;6.68;;
71867;SDS011;59738;48.324;14.230;2023-07-13T05:29:51;13.65;;;6.55;;
71867;SDS011;59738;48.324;14.230;2023-07-13T05:32:20;13.48;;;6.60;;
71867;SDS011;59738;48.324;14.230;2023-07-13T05:34:47;10.40;;;6.20;;
71867;SDS011;59738;48.324;14.230;2023-07-13T05:37:15;9.03;;;5.93;;
71867;SDS011;59738;48.324;14.230;2023-07-13T05:39:42;15.32;;;6.78;;
71867;SDS011;59738;48.324;14.230;2023-07-13T05:42:10;9.63;;;6.28;;
71867;SDS011;59738;48.324;14.230;2023-07-13T05:44:37;14.55;;;7.20;;
71867;SDS011;59738;48.324;14.230;2023-07-13T05:47:05;32.15;;;8.07;;
71867;SDS011;59738;48.324;14.230;2023-07-13T05:49:34;14.63;;;7.07;;
71867;SDS011;59738;48.324;14.230;2023-07-13T05:52:01;11.68;;;7.22;;
71867;SDS011;59738;48.324;14.230;2023-07-13T05:54:29;16.33;;;8.05;;
71867;SDS011;59738;48.324;14.230;2023-07-13T05:56:56;18.80;;;7.68;;
71867;SDS011;59738;48.324;14.230;2023-07-13T05:59:24;14.52;;;7.38;;
71867;SDS011;59738;48.324;14.230;2023-07-13T06:01:51;15.23;;;7.73;;
71867;SDS011;59738;48.324;14.230;2023-07-13T06:04:19;14.50;;;8.07;;
71867;SDS011;59738;48.324;14.230;2023-07-13T06:06:48;15.45;;;7.68;;
71867;SDS011;59738;48.324;14.230;2023-07-13T06:09:15;15.25;;;8.00;;
71867;SDS011;59738;48.324;14.230;2023-07-13T06:11:42;12.27;;;8.10;;
71867;SDS011;59738;48.324;14.230;2023-07-13T06:14:10;16.80;;;8.90;;
71867;SDS011;59738;48.324;14.230;2023-07-13T06:16:39;15.93;;;8.73;;
71867;SDS011;59738;48.324;14.230;2023-07-13T06:19:07;11.15;;;7.97;;
71867;SDS011;59738;48.324;14.230;2023-07-13T06:21:34;23.02;;;7.38;;
71867;SDS011;59738;48.324;14.230;2023-07-13T06:24:03;13.18;;;7.57;;
71867;SDS011;59738;48.324;14.230;2023-07-13T06:26:30;13.33;;;8.03;;
71867;SDS011;59738;48.324;14.230;2023-07-13T06:28:58;15.55;;;8.55;;
71867;SDS011;59738;48.324;14.230;2023-07-13T06:31:26;15.02;;;7.90;;
71867;SDS011;59738;48.324;14.230;2023-07-13T06:33:53;15.20;;;8.15;;
71867;SDS011;59738;48.324;14.230;2023-07-13T06:36:20;17.13;;;8.35;;
71867;SDS011;59738;48.324;14.230;2023-07-13T06:38:48;15.60;;;7.67;;
71867;SDS011;59738;48.324;14.230;2023-07-13T06:41:16;13.75;;;7.22;;
71867;SDS011;59738;48.324;14.230;2023-07-13T06:43:44;15.20;;;8.55;;
71867;SDS011;59738;48.324;14.230;2023-07-13T06:46:11;11.52;;;7.50;;
71867;SDS011;59738;48.324;14.230;2023-07-13T06:48:38;15.02;;;8.07;;
71867;SDS011;59738;48.324;14.230;2023-07-13T06:51:06;13.73;;;8.07;;
71867;SDS011;59738;48.324;14.230;2023-07-13T06:53:33;11.43;;;7.18;;
71867;SDS011;59738;48.324;14.230;2023-07-13T06:56:00;17.15;;;7.38;;
71867;SDS011;59738;48.324;14.230;2023-07-13T06:58:29;14.85;;;7.10;;
71867;SDS011;59738;48.324;14.230;2023-07-13T07:00:56;11.52;;;6.72;;
71867;SDS011;59738;48.324;14.230;2023-07-13T07:03:24;11.67;;;7.17;;
71867;SDS011;59738;48.324;14.230;2023-07-13T07:05:51;13.75;;;7.20;;
71867;SDS011;59738;48.324;14.230;2023-07-13T07:08:19;12.30;;;6.72;;
71867;SDS011;59738;48.324;14.230;2023-07-13T07:10:46;12.48;;;6.35;;
71867;SDS011;59738;48.324;14.230;2023-07-13T07:13:17;10.27;;;5.85;;
71867;SDS011;59738;48.324;14.230;2023-07-13T07:15:46;9.27;;;5.70;;
71867;SDS011;59738;48.324;14.230;2023-07-13T07:18:13;8.10;;;5.50;;
71867;SDS011;59738;48.324;14.230;2023-07-13T07:20:41;10.27;;;5.60;;
71867;SDS011;59738;48.324;14.230;2023-07-13T07:23:08;12.02;;;5.10;;
71867;SDS011;59738;48.324;14.230;2023-07-13T07:25:35;9.50;;;5.18;;
71867;SDS011;59738;48.324;14.230;2023-07-13T07:28:07;8.33;;;4.10;;
71867;SDS011;59738;48.324;14.230;2023-07-13T07:30:35;5.72;;;3.90;;
71867;SDS011;59738;48.324;14.230;2023-07-13T07:33:05;6.65;;;4.05;;
71867;SDS011;59738;48.324;14.230;2023-07-13T07:35:32;6.00;;;4.07;;
71867;SDS011;59738;48.324;14.230;2023-07-13T07:37:59;9.27;;;4.72;;
71867;SDS011;59738;48.324;14.230;2023-07-13T07:40:27;11.03;;;4.40;;
71867;SDS011;59738;48.324;14.230;2023-07-13T07:42:54;7.00;;;4.50;;
71867;SDS011;59738;48.324;14.230;2023-07-13T07:45:22;7.95;;;4.07;;
71867;SDS011;59738;48.324;14.230;2023-07-13T07:47:49;8.48;;;4.18;;
71867;SDS011;59738;48.324;14.230;2023-07-13T07:50:18;7.43;;;4.30;;
71867;SDS011;59738;48.324;14.230;2023-07-13T07:52:46;5.40;;;4.33;;
71867;SDS011;59738;48.324;14.230;2023-07-13T07:55:13;6.50;;;3.88;;
71867;SDS011;59738;48.324;14.230;2023-07-13T07:57:40;8.90;;;4.10;;
71867;SDS011;59738;48.324;14.230;2023-07-13T08:00:08;6.93;;;4.00;;
71867;SDS011;59738;48.324;14.230;2023-07-13T08:02:42;6.93;;;4.20;;
71867;SDS011;59738;48.324;14.230;2023-07-13T08:05:10;5.40;;;3.90;;
71867;SDS011;59738;48.324;14.230;2023-07-13T08:07:39;6.88;;;4.35;;
71867;SDS011;59738;48.324;14.230;2023-07-13T08:10:07;7.43;;;4.10;;
71867;SDS011;59738;48.324;14.230;2023-07-13T08:12:35;5.95;;;3.92;;
71867;SDS011;59738;48.324;14.230;2023-07-13T08:15:03;9.10;;;3.97;;
71867;SDS011;59738;48.324;14.230;2023-07-13T08:17:32;7.07;;;4.13;;
71867;SDS011;59738;48.324;14.230;2023-07-13T08:19:59;8.65;;;4.13;;
71867;SDS011;59738;48.324;14.230;2023-07-13T08:22:26;8.88;;;4.72;;
71867;SDS011;59738;48.324;14.230;2023-07-13T08:24:55;5.40;;;4.03;;
71867;SDS011;59738;48.324;14.230;2023-07-13T08:27:23;10.15;;;4.53;;
71867;SDS011;59738;48.324;14.230;2023-07-13T08:29:51;9.60;;;4.67;;
71867;SDS011;59738;48.324;14.230;2023-07-13T08:32:19;8.63;;;4.68;;
71867;SDS011;59738;48.324;14.230;2023-07-13T08:34:47;7.10;;;4.18;;
71867;SDS011;59738;48.324;14.230;2023-07-13T08:37:15;6.70;;;3.88;;
71867;SDS011;59738;48.324;14.230;2023-07-13T08:39:43;6.55;;;4.15;;
71867;SDS011;59738;48.324;14.230;2023-07-13T08:42:12;7.83;;;4.60;;
71867;SDS011;59738;48.324;14.230;2023-07-13T08:44:49;7.35;;;4.10;;
71867;SDS011;59738;48.324;14.230;2023-07-13T08:47:21;10.80;;;4.47;;
71867;SDS011;59738;48.324;14.230;2023-07-13T08:49:49;8.55;;;4.60;;
71867;SDS011;59738;48.324;14.230;2023-07-13T08:52:20;7.80;;;4.25;;
71867;SDS011;59738;48.324;14.230;2023-07-13T08:54:54;9.93;;;4.27;;
71867;SDS011;59738;48.324;14.230;2023-07-13T08:57:24;6.68;;;3.88;;
71867;SDS011;59738;48.324;14.230;2023-07-13T08:59:56;12.38;;;5.05;;
71867;SDS011;59738;48.324;14.230;2023-07-13T09:02:25;6.15;;;4.10;;
71867;SDS011;59738;48.324;14.230;2023-07-13T09:04:55;12.85;;;4.82;;
71867;SDS011;59738;48.324;14.230;2023-07-13T09:07:28;8.10;;;4.27;;
71867;SDS011;59738;48.324;14.230;2023-07-13T09:10:04;8.27;;;4.18;;
71867;SDS011;59738;48.324;14.230;2023-07-13T09:12:39;10.35;;;5.15;;
71867;SDS011;59738;48.324;14.230;2023-07-13T09:15:17;8.93;;;3.78;;
71867;SDS011;59738;48.324;14.230;2023-07-13T09:17:51;7.65;;;4.28;;
71867;SDS011;59738;48.324;14.230;2023-07-13T09:20:21;5.07;;;3.80;;
71867;SDS011;59738;48.324;14.230;2023-07-13T09:22:52;8.75;;;3.90;;
71867;SDS011;59738;48.324;14.230;2023-07-13T09:25:23;7.05;;;4.20;;
71867;SDS011;59738;48.324;14.230;2023-07-13T09:27:55;6.80;;;4.03;;
71867;SDS011;59738;48.324;14.230;2023-07-13T09:30:30;6.22;;;3.97;;
71867;SDS011;59738;48.324;14.230;2023-07-13T09:33:01;8.43;;;3.50;;
71867;SDS011;59738;48.324;14.230;2023-07-13T09:35:28;7.82;;;4.13;;
71867;SDS011;59738;48.324;14.230;2023-07-13T09:37:57;8.13;;;4.20;;
71867;SDS011;59738;48.324;14.230;2023-07-13T09:40:28;7.30;;;4.30;;
71867;SDS011;59738;48.324;14.230;2023-07-13T09:43:01;5.57;;;3.92;;
71867;SDS011;59738;48.324;14.230;2023-07-13T09:45:30;6.73;;;3.70;;
71867;SDS011;59738;48.324;14.230;2023-07-13T09:48:03;5.05;;;4.05;;
71867;SDS011;59738;48.324;14.230;2023-07-13T09:50:31;5.70;;;4.20;;
71867;SDS011;59738;48.324;14.230;2023-07-13T09:53:00;7.57;;;3.65;;
71867;SDS011;59738;48.324;14.230;2023-07-13T09:55:29;9.88;;;3.80;;
71867;SDS011;59738;48.324;14.230;2023-07-13T09:57:57;9.07;;;3.63;;
71867;SDS011;59738;48.324;14.230;2023-07-13T10:00:27;7.10;;;4.10;;
71867;SDS011;59738;48.324;14.230;2023-07-13T10:03:02;7.50;;;4.00;;
71867;SDS011;59738;48.324;14.230;2023-07-13T10:05:37;9.27;;;3.92;;
71867;SDS011;59738;48.324;14.230;2023-07-13T10:08:09;8.63;;;4.20;;
71867;SDS011;59738;48.324;14.230;2023-07-13T10:10:44;8.10;;;4.03;;
71867;SDS011;59738;48.324;14.230;2023-07-13T10:13:24;7.35;;;3.65;;
71867;SDS011;59738;48.324;14.230;2023-07-13T10:15:55;5.07;;;3.83;;
71867;SDS011;59738;48.324;14.230;2023-07-13T10:18:24;6.50;;;3.78;;
71867;SDS011;59738;48.324;14.230;2023-07-13T10:20:53;10.48;;;4.07;;
71867;SDS011;59738;48.324;14.230;2023-07-13T10:23:22;7.03;;;3.70;;
71867;SDS011;59738;48.324;14.230;2023-07-13T10:25:50;5.68;;;3.50;;
71867;SDS011;59738;48.324;14.230;2023-07-13T10:28:21;8.68;;;3.65;;
71867;SDS011;59738;48.324;14.230;2023-07-13T10:30:53;7.25;;;3.88;;
71867;SDS011;59738;48.324;14.230;2023-07-13T10:33:23;5.32;;;3.50;;
71867;SDS011;59738;48.324;14.230;2023-07-13T10:35:54;7.97;;;4.10;;
71867;SDS011;59738;48.324;14.230;2023-07-13T10:38:27;5.75;;;3.83;;
71867;SDS011;59738;48.324;14.230;2023-07-13T10:40:56;5.70;;;3.20;;
71867;SDS011;59738;48.324;14.230;2023-07-13T10:43:32;6.65;;;4.03;;
71867;SDS011;59738;48.324;14.230;2023-07-13T10:46:05;4.90;;;3.28;;
71867;SDS011;59738;48.324;14.230;2023-07-13T10:48:33;8.53;;;3.50;;
71867;SDS011;59738;48.324;14.230;2023-07-13T10:51:03;7.40;;;3.72;;
71867;SDS011;59738;48.324;14.230;2023-07-13T10:53:32;4.95;;;3.55;;
71867;SDS011;59738;48.324;14.230;2023-07-13T10:56:01;10.20;;;4.00;;
71867;SDS011;59738;48.324;14.230;2023-07-13T10:58:32;4.53;;;3.35;;
71867;SDS011;59738;48.324;14.230;2023-07-13T11:01:03;5.93;;;3.87;;
71867;SDS011;59738;48.324;14.230;2023-07-13T11:03:36;5.47;;;3.28;;
71867;SDS011;59738;48.324;14.230;2023-07-13T11:06:16;7.90;;;3.60;;
71867;SDS011;59738;48.324;14.230;2023-07-13T11:08:51;5.10;;;3.25;;
71867;SDS011;59738;48.324;14.230;2023-07-13T11:11:34;6.90;;;3.40;;
71867;SDS011;59738;48.324;14.230;2023-07-13T11:14:04;5.73;;;3.77;;
71867;SDS011;59738;48.324;14.230;2023-07-13T11:16:41;10.70;;;3.63;;
71867;SDS011;59738;48.324;14.230;2023-07-13T11:19:24;5.55;;;3.40;;
71867;SDS011;59738;48.324;14.230;2023-07-13T11:22:01;6.90;;;3.63;;
71867;SDS011;59738;48.324;14.230;2023-07-13T11:24:47;4.75;;;3.50;;
71867;SDS011;59738;48.324;14.230;2023-07-13T11:27:21;6.10;;;3.60;;
71867;SDS011;59738;48.324;14.230;2023-07-13T11:30:06;6.28;;;3.33;;
71867;SDS011;59738;48.324;14.230;2023-07-13T11:32:36;4.85;;;3.67;;
71867;SDS011;59738;48.324;14.230;2023-07-13T11:35:03;6.88;;;3.60;;
71867;SDS011;59738;48.324;14.230;2023-07-13T11:37:31;7.35;;;3.60;;
71867;SDS011;59738;48.324;14.230;2023-07-13T11:39:59;5.77;;;3.67;;
71867;SDS011;59738;48.324;14.230;2023-07-13T11:42:27;5.00;;;3.50;;
71867;SDS011;59738;48.324;14.230;2023-07-13T11:44:55;7.53;;;3.08;;
71867;SDS011;59738;48.324;14.230;2023-07-13T11:47:25;4.70;;;2.97;;
71867;SDS011;59738;48.324;14.230;2023-07-13T11:49:55;3.72;;;2.80;;
71867;SDS011;59738;48.324;14.230;2023-07-13T11:52:26;4.90;;;3.20;;
71867;SDS011;59738;48.324;14.230;2023-07-13T11:55:00;7.82;;;2.92;;
71867;SDS011;59738;48.324;14.230;2023-07-13T11:57:32;4.57;;;2.80;;
71867;SDS011;59738;48.324;14.230;2023-07-13T12:00:20;7.40;;;3.17;;
71867;SDS011;59738;48.324;14.230;2023-07-13T12:02:50;6.25;;;3.10;;
71867;SDS011;59738;48.324;14.230;2023-07-13T12:05:20;6.17;;;2.80;;
71867;SDS011;59738;48.324;14.230;2023-07-13T12:07:47;3.92;;;2.80;;
71867;SDS011;59738;48.324;14.230;2023-07-13T12:10:17;5.63;;;3.00;;
71867;SDS011;59738;48.324;14.230;2023-07-13T12:12:47;5.18;;;2.70;;
71867;SDS011;59738;48.324;14.230;2023-07-13T12:15:15;8.60;;;2.78;;
71867;SDS011;59738;48.324;14.230;2023-07-13T12:17:42;2.77;;;2.47;;
71867;SDS011;59738;48.324;14.230;2023-07-13T12:20:17;7.55;;;2.75;;
71867;SDS011;59738;48.324;14.230;2023-07-13T12:22:49;4.25;;;2.20;;
71867;SDS011;59738;48.324;14.230;2023-07-13T12:25:17;4.82;;;2.83;;
71867;SDS011;59738;48.324;14.230;2023-07-13T12:27:48;7.18;;;2.72;;
71867;SDS011;59738;48.324;14.230;2023-07-13T12:30:23;7.43;;;2.80;;
71867;SDS011;59738;48.324;14.230;2023-07-13T12:32:56;3.28;;;2.50;;
71867;SDS011;59738;48.324;14.230;2023-07-13T12:35:27;6.38;;;2.58;;
71867;SDS011;59738;48.324;14.230;2023-07-13T12:37:56;5.22;;;3.13;;
71867;SDS011;59738;48.324;14.230;2023-07-13T12:40:27;4.10;;;2.58;;
71867;SDS011;59738;48.324;14.230;2023-07-13T12:42:58;15.83;;;3.10;;
71867;SDS011;59738;48.324;14.230;2023-07-13T12:45:27;3.67;;;2.58;;
71867;SDS011;59738;48.324;14.230;2023-07-13T12:47:55;5.03;;;2.72;;
71867;SDS011;59738;48.324;14.230;2023-07-13T12:50:30;7.28;;;2.83;;
71867;SDS011;59738;48.324;14.230;2023-07-13T12:53:01;5.53;;;2.90;;
71867;SDS011;59738;48.324;14.230;2023-07-13T12:55:39;5.67;;;3.00;;
71867;SDS011;59738;48.324;14.230;2023-07-13T12:58:09;5.00;;;2.70;;
71867;SDS011;59738;48.324;14.230;2023-07-13T13:00:48;4.50;;;2.47;;
71867;SDS011;59738;48.324;14.230;2023-07-13T13:03:21;6.40;;;2.90;;
71867;SDS011;59738;48.324;14.230;2023-07-13T13:05:58;4.10;;;2.70;;
71867;SDS011;59738;48.324;14.230;2023-07-13T13:08:29;4.50;;;2.43;;
71867;SDS011;59738;48.324;14.230;2023-07-13T13:10:57;9.35;;;2.97;;
71867;SDS011;59738;48.324;14.230;2023-07-13T13:13:24;9.25;;;2.83;;
71867;SDS011;59738;48.324;14.230;2023-07-13T13:15:52;4.78;;;2.78;;
71867;SDS011;59738;48.324;14.230;2023-07-13T13:18:20;8.68;;;3.10;;
71867;SDS011;59738;48.324;14.230;2023-07-13T13:20:48;5.03;;;2.80;;
71867;SDS011;59738;48.324;14.230;2023-07-13T13:23:19;7.13;;;3.00;;
71867;SDS011;59738;48.324;14.230;2023-07-13T13:25:49;3.92;;;2.55;;
71867;SDS011;59738;48.324;14.230;2023-07-13T13:28:18;8.82;;;3.33;;
71867;SDS011;59738;48.324;14.230;2023-07-13T13:30:47;6.45;;;3.22;;
71867;SDS011;59738;48.324;14.230;2023-07-13T13:33:17;4.30;;;2.77;;
71867;SDS011;59738;48.324;14.230;2023-07-13T13:35:45;11.38;;;3.00;;
71867;SDS011;59738;48.324;14.230;2023-07-13T13:38:13;7.10;;;3.55;;
71867;SDS011;59738;48.324;14.230;2023-07-13T13:40:44;5.88;;;2.70;;
71867;SDS011;59738;48.324;14.230;2023-07-13T13:43:15;3.92;;;2.60;;
71867;SDS011;59738;48.324;14.230;2023-07-13T13:45:43;8.63;;;2.70;;
71867;SDS011;59738;48.324;14.230;2023-07-13T13:48:16;3.83;;;2.38;;
71867;SDS011;59738;48.324;14.230;2023-07-13T13:50:44;5.00;;;2.63;;
71867;SDS011;59738;48.324;14.230;2023-07-13T13:53:12;4.95;;;2.65;;
71867;SDS011;59738;48.324;14.230;2023-07-13T13:55:40;12.15;;;4.90;;
71867;SDS011;59738;48.324;14.230;2023-07-13T13:58:09;5.60;;;2.57;;
71867;SDS011;59738;48.324;14.230;2023-07-13T14:00:36;12.55;;;2.72;;
71867;SDS011;59738;48.324;14.230;2023-07-13T14:03:04;4.85;;;2.45;;
71867;SDS011;59738;48.324;14.230;2023-07-13T14:05:32;6.90;;;2.45;;
71867;SDS011;59738;48.324;14.230;2023-07-13T14:08:00;6.05;;;2.28;;
71867;SDS011;59738;48.324;14.230;2023-07-13T14:10:27;9.20;;;2.40;;
71867;SDS011;59738;48.324;14.230;2023-07-13T14:12:55;3.72;;;2.20;;
71867;SDS011;59738;48.324;14.230;2023-07-13T14:15:25;3.83;;;2.20;;
71867;SDS011;59738;48.324;14.230;2023-07-13T14:17:54;5.13;;;2.25;;
71867;SDS011;59738;48.324;14.230;2023-07-13T14:20:23;5.22;;;2.60;;
71867;SDS011;59738;48.324;14.230;2023-07-13T14:22:52;5.80;;;2.50;;
71867;SDS011;59738;48.324;14.230;2023-07-13T14:25:20;3.60;;;2.35;;
71867;SDS011;59738;48.324;14.230;2023-07-13T14:27:48;11.13;;;2.40;;
71867;SDS011;59738;48.324;14.230;2023-07-13T14:30:18;8.82;;;2.53;;
71867;SDS011;59738;48.324;14.230;2023-07-13T14:32:48;5.60;;;2.60;;
71867;SDS011;59738;48.324;14.230;2023-07-13T14:35:16;3.63;;;2.40;;
71867;SDS011;59738;48.324;14.230;2023-07-13T14:37:46;5.93;;;2.53;;
71867;SDS011;59738;48.324;14.230;2023-07-13T14:40:13;6.88;;;2.42;;